EST,Max TemperatureF,Mean TemperatureF,Min TemperatureF,Max Dew PointF,MeanDew PointF,Min DewpointF,Max Humidity, Mean Humidity, Min Humidity, Max Sea Level PressureIn, Mean Sea Level PressureIn, Min Sea Level PressureIn, Max VisibilityMiles, Mean VisibilityMiles, Min VisibilityMiles, Max Wind SpeedMPH, Mean Wind SpeedMPH, Max Gust SpeedMPH,PrecipitationIn, CloudCover, Events, WindDirDegrees
2013-11-1,70,62,53,61,56,52,93,74,55,29.75,29.65,29.57,10,6,0,35,10,45,0.36,3,Fog-Rain,238
2013-11-2,68,59,49,55,45,37,96,69,42,29.79,29.67,29.62,10,9,2,15,5,21,0.00,4,,317
2013-11-3,52,43,33,40,30,18,76,55,34,30.43,30.10,29.80,10,10,10,23,11,30,0.00,3,,345
2013-11-4,47,38,29,24,18,14,64,45,26,30.63,30.58,30.46,10,10,10,17,6,24,0.00,0,,25
2013-11-5,59,47,34,41,34,23,77,62,47,30.62,30.56,30.48,10,10,10,10,4,28,0.00,3,,63
2013-11-6,66,52,37,53,45,37,93,73,52,30.47,30.28,30.06,10,10,9,14,5,18,0.00,4,,196
2013-11-7,62,51,40,57,49,33,93,79,65,30.04,29.90,29.78,10,10,4,23,8,31,0.06,7,Rain,279
2013-11-8,50,43,36,33,27,24,70,53,36,30.24,30.09,29.96,10,10,10,22,11,33,T,4,,295
2013-11-9,51,42,33,32,26,24,70,53,36,30.30,30.18,29.99,10,10,10,15,6,20,0.00,0,,237
2013-11-10,60,48,36,34,29,24,85,58,30,30.09,29.95,29.86,10,10,10,25,11,37,0.00,4,,273
2013-11-11,54,46,38,34,28,24,54,46,38,30.23,30.11,29.97,10,10,10,22,10,31,0.00,4,,267
2013-11-12,50,40,29,35,23,14,82,61,40,30.32,30.14,29.94,10,8,2,25,11,31,0.01,5,Rain-Snow,339
2013-11-13,41,34,27,18,13,8,58,43,27,30.39,30.34,30.30,10,10,10,22,10,31,0.00,0,,309
2013-11-14,54,42,29,21,16,9,63,40,16,30.29,30.24,30.19,10,10,10,17,7,28,0.00,0,,252
2013-11-15,57,44,30,33,27,23,76,54,32,30.25,30.21,30.17,10,10,8,10,3,10,0.00,0,,227
2013-11-16,58,49,40,47,43,31,93,75,57,30.34,30.28,30.24,10,7,1,13,3,16,0.04,5,Rain,215
2013-11-17,66,58,49,58,52,46,93,83,73,30.25,30.08,29.77,10,7,2,13,6,15,0.00,7,,151
2013-11-18,66,58,50,61,42,25,93,59,25,29.81,29.69,29.63,10,9,2,22,11,35,0.13,4,Rain,256
2013-11-19,50,42,33,25,22,20,52,44,36,30.34,30.09,29.82,10,10,10,23,14,35,0.00,2,,333
2013-11-20,46,37,27,20,14,5,68,44,20,30.59,30.51,30.35,10,10,10,13,5,21,0.00,0,,31
2013-11-21,54,42,29,40,29,14,71,58,45,30.59,30.50,30.38,10,10,10,12,5,17,0.00,5,,77
2013-11-22,58,53,48,49,45,39,93,80,67,30.36,30.14,29.93,10,9,4,12,5,16,0.02,6,Rain,230
2013-11-23,53,42,30,44,23,12,89,61,33,30.06,29.99,29.94,10,10,10,24,15,36,T,1,,315
2013-11-24,31,25,19,4,0,-2,47,37,27,30.43,30.24,30.06,10,10,10,30,16,43,0.00,1,,317
2013-11-25,35,27,19,16,11,5,67,53,38,30.51,30.42,30.34,10,10,10,15,7,20,0.00,0,,251
2013-11-26,53,43,32,51,31,17,100,74,48,30.32,30.10,29.67,10,6,2,17,6,23,0.71,8,Rain,106
2013-11-27,63,48,33,61,46,19,93,73,52,29.81,29.49,29.38,10,6,1,25,14,38,1.87,8,Rain-Snow,280
2013-11-28,36,32,28,18,14,10,58,47,35,30.47,30.24,29.85,10,10,10,26,12,37,0.00,2,,306
2013-11-29,40,32,23,21,18,15,81,61,40,30.72,30.58,30.46,10,10,10,17,5,24,0.00,2,,344
2013-11-30,38,30,22,27,20,10,75,64,52,30.72,30.58,30.37,10,10,10,14,6,18,0.00,4,,42